Private Wetterstation Nrnberg - Katzwang
Wetterdaten: Oktober 2010
Datum Temp. A. Feuchte A. Luftdruck Regen Wind Richtung Taupunkt Windchill Windben
01.10.2010 11,0 C 92 % 1013 hPa 1,6 l/m 10,8 km/h O-NO 9,7 C 8,3 C 11,8 km/h
02.10.2010 12,4 C 91 % 1014 hPa 0,5 l/m 7,0 km/h NO 10,9 C 11,1 C 8,0 km/h
03.10.2010 13,7 C 81 % 1009 hPa 0,0 l/m 3,3 km/h O-NO 10,3 C 13,2 C 4,3 km/h
04.10.2010 13,0 C 79 % 1004 hPa 0,0 l/m 3,4 km/h O 9,3 C 12,4 C 4,4 km/h
05.10.2010 13,5 C 87 % 1009 hPa 0,0 l/m 1,5 km/h NO 11,3 C 13,5 C 2,5 km/h
06.10.2010 14,3 C 87 % 1014 hPa 0,0 l/m 2,4 km/h O 12,1 C 14,3 C 3,4 km/h
07.10.2010 13,6 C 86 % 1019 hPa 0,0 l/m 4,1 km/h O-NO 11,3 C 13,5 C 5,1 km/h
08.10.2010 11,9 C 78 % 1018 hPa 0,0 l/m 3,3 km/h O 7,9 C 11,3 C 6,1 km/h
09.10.2010 10,8 C 65 % 1016 hPa 0,0 l/m 5,0 km/h NO 4,2 C 9,9 C 6,6 km/h
10.10.2010 10,1 C 58 % 1011 hPa 0,0 l/m 3,9 km/h NO 1,6 C 9,5 C 4,9 km/h
11.10.2010 9,5 C 63 % 1011 hPa 0,0 l/m 4,1 km/h O 2,1 C 8,6 C 10,9 km/h
12.10.2010 8,2 C 71 % 1012 hPa 0,0 l/m 0,0 km/h N-NO 2,8 C 8,2 C 1,0 km/h
13.10.2010 7,6 C 75 % 1012 hPa 0,0 l/m 1,2 km/h N-NO 3,3 C 7,6 C 2,2 km/h
14.10.2010 5,8 C 83 % 1012 hPa 0,0 l/m 1,7 km/h W-NW 3,1 C 5,7 C 2,7 km/h
15.10.2010 7,6 C 85 % 1010 hPa 0,0 l/m 6,2 km/h W-NW 5,3 C 6,9 C 7,2 km/h
16.10.2010 7,8 C 90 % 1008 hPa 8,3 l/m 3,4 km/h NO 6,2 C 7,8 C 4,4 km/h
17.10.2010 6,8 C 87 % 1015 hPa 0,0 l/m 1,7 km/h NO 4,7 C 6,8 C 2,7 km/h
18.10.2010 5,8 C 84 % 1017 hPa 0,0 l/m 1,0 km/h W-NW 3,2 C 5,8 C 2,0 km/h
19.10.2010 6,1 C 87 % 1007 hPa 3,1 l/m 5,7 km/h N 4,0 C 4,9 C 6,7 km/h
20.10.2010 5,4 C 91 % 1009 hPa 3,1 l/m 8,4 km/h W-NW 4,1 C 3,4 C 9,4 km/h
21.10.2010 2,9 C 82 % 1022 hPa 0,0 l/m 1,2 km/h W-NW 0,0 C 2,9 C 2,2 km/h
22.10.2010 2,4 C 80 % 1019 hPa 0,0 l/m 0,0 km/h O-NO -0,8 C 2,4 C 1,0 km/h
23.10.2010 7,1 C 84 % 1009 hPa 0,0 l/m 5,8 km/h N-NO 4,5 C 6,5 C 6,8 km/h
24.10.2010 6,7 C 89 % 1009 hPa 5,7 l/m 3,3 km/h W-NW 5,0 C 6,5 C 4,3 km/h
25.10.2010 3,6 C 86 % 1019 hPa 0,0 l/m 5,0 km/h N-NO 1,3 C 2,1 C 6,0 km/h
26.10.2010 3,7 C 83 % 1026 hPa 0,0 l/m 2,2 km/h N-NW 1,0 C 3,7 C 3,2 km/h
27.10.2010 5,9 C 77 % 1024 hPa 0,0 l/m 4,3 km/h NO 1,9 C 5,9 C 5,3 km/h
28.10.2010 8,2 C 73 % 1020 hPa 0,0 l/m 4,8 km/h NO 3,4 C 7,3 C 5,8 km/h
29.10.2010 7,7 C 79 % 1011 hPa 0,0 l/m 2,0 km/h O-NO 4,1 C 7,7 C 3,0 km/h
30.10.2010 8,9 C 80 % 1006 hPa 0,0 l/m 2,4 km/h O-NO 5,5 C 8,5 C 3,4 km/h
31.10.2010 9,1 C 80 % 1001 hPa 0,0 l/m 0,0 km/h N-NO 5,7 C 9,1 C 1,0 km/h
Min-Datum 22.10.10 10.10.10 31.10.10 6 Tage 01.10.10 - 22.10.10 27.10.10 01.10.10
Min-Zeit 07:50 16:30 04:40 - 00:00 - 07:50 09:50 00:00
Minimum -3,1 C 34 % 1001 hPa - 0,0 km/h - -4,5 C -5,0 C 1,0 km/h
Max-Datum 03.10.10 01.10.10 26.10.10 16.10.10 08.10.10 - 03.10.10 03.10.10 11.10.10
Max-Zeit 14:20 21:30 11:30 02:20 12:40 - 14:30 15:10 16:10
Maximum 21,2 C 93 % 1027 hPa 8,3 l/m 31,5 km/h
O
- 13,7 C 20,8 C 42,7 km/h
O
Durchschnitt 8,4 C 81 % 1013 hPa #22,3 l/m 3,5 km/h NO 5,1 C 7,9 C 4,8 km/h

Durchschnitt Minimum Temp.3,8 C
Durchschnitt Maximum Temp.13,4 C